sensor_id;sensor_type;location;lat;lon;timestamp;temperature;humidity
7822;DHT22;3956;50.558;9.678;2023-03-23T00:00:24;12.70;1.00
7822;DHT22;3956;50.558;9.678;2023-03-23T00:02:53;12.70;1.00
7822;DHT22;3956;50.558;9.678;2023-03-23T00:05:22;12.70;1.00
7822;DHT22;3956;50.558;9.678;2023-03-23T00:07:49;12.80;1.00
7822;DHT22;3956;50.558;9.678;2023-03-23T00:10:20;12.80;1.00
7822;DHT22;3956;50.558;9.678;2023-03-23T00:12:50;12.90;1.00
7822;DHT22;3956;50.558;9.678;2023-03-23T00:15:17;13.10;1.00
7822;DHT22;3956;50.558;9.678;2023-03-23T00:17:45;13.00;1.00
7822;DHT22;3956;50.558;9.678;2023-03-23T00:20:13;12.90;1.00
7822;DHT22;3956;50.558;9.678;2023-03-23T00:22:44;13.00;1.00
7822;DHT22;3956;50.558;9.678;2023-03-23T00:25:12;13.00;1.00
7822;DHT22;3956;50.558;9.678;2023-03-23T00:27:42;13.00;1.00
7822;DHT22;3956;50.558;9.678;2023-03-23T00:30:11;13.00;1.00
7822;DHT22;3956;50.558;9.678;2023-03-23T00:32:38;12.90;1.00
7822;DHT22;3956;50.558;9.678;2023-03-23T00:35:06;12.90;1.00
7822;DHT22;3956;50.558;9.678;2023-03-23T00:37:34;12.80;1.00
7822;DHT22;3956;50.558;9.678;2023-03-23T00:40:03;12.90;1.00
7822;DHT22;3956;50.558;9.678;2023-03-23T00:42:35;12.80;1.00
7822;DHT22;3956;50.558;9.678;2023-03-23T00:45:06;12.80;1.00
7822;DHT22;3956;50.558;9.678;2023-03-23T00:47:38;12.90;1.00
7822;DHT22;3956;50.558;9.678;2023-03-23T00:50:07;12.90;1.00
7822;DHT22;3956;50.558;9.678;2023-03-23T00:52:35;12.80;1.00
7822;DHT22;3956;50.558;9.678;2023-03-23T00:55:04;12.80;1.00
7822;DHT22;3956;50.558;9.678;2023-03-23T00:57:31;12.90;1.00
7822;DHT22;3956;50.558;9.678;2023-03-23T00:59:59;12.80;1.00
7822;DHT22;3956;50.558;9.678;2023-03-23T01:02:26;12.70;1.00
7822;DHT22;3956;50.558;9.678;2023-03-23T01:04:53;12.60;1.00
7822;DHT22;3956;50.558;9.678;2023-03-23T01:07:20;12.40;99.90
7822;DHT22;3956;50.558;9.678;2023-03-23T01:09:50;12.40;1.00
7822;DHT22;3956;50.558;9.678;2023-03-23T01:12:22;12.40;1.00
7822;DHT22;3956;50.558;9.678;2023-03-23T01:14:51;12.10;1.00
7822;DHT22;3956;50.558;9.678;2023-03-23T01:17:18;12.10;1.00
7822;DHT22;3956;50.558;9.678;2023-03-23T01:19:47;12.10;1.00
7822;DHT22;3956;50.558;9.678;2023-03-23T01:22:16;12.20;1.00
7822;DHT22;3956;50.558;9.678;2023-03-23T01:24:43;12.10;1.00
7822;DHT22;3956;50.558;9.678;2023-03-23T01:27:10;12.10;1.00
7822;DHT22;3956;50.558;9.678;2023-03-23T01:29:40;12.00;1.00
7822;DHT22;3956;50.558;9.678;2023-03-23T01:32:07;12.10;1.00
7822;DHT22;3956;50.558;9.678;2023-03-23T01:34:34;12.10;1.00
7822;DHT22;3956;50.558;9.678;2023-03-23T01:37:04;12.00;1.00
7822;DHT22;3956;50.558;9.678;2023-03-23T01:39:31;12.10;1.00
7822;DHT22;3956;50.558;9.678;2023-03-23T01:41:59;12.10;1.00
7822;DHT22;3956;50.558;9.678;2023-03-23T01:47:37;12.00;1.00
7822;DHT22;3956;50.558;9.678;2023-03-23T01:50:07;12.00;1.00
7822;DHT22;3956;50.558;9.678;2023-03-23T01:52:36;12.10;1.00
7822;DHT22;3956;50.558;9.678;2023-03-23T01:55:03;12.00;1.00
7822;DHT22;3956;50.558;9.678;2023-03-23T01:57:31;12.00;1.00
7822;DHT22;3956;50.558;9.678;2023-03-23T02:00:03;11.90;1.00
7822;DHT22;3956;50.558;9.678;2023-03-23T02:02:37;11.70;1.00
7822;DHT22;3956;50.558;9.678;2023-03-23T02:05:11;11.90;1.00
7822;DHT22;3956;50.558;9.678;2023-03-23T02:07:40;12.00;1.00
7822;DHT22;3956;50.558;9.678;2023-03-23T02:10:09;12.10;1.00
7822;DHT22;3956;50.558;9.678;2023-03-23T02:12:37;12.00;1.00
7822;DHT22;3956;50.558;9.678;2023-03-23T02:15:05;12.10;1.00
7822;DHT22;3956;50.558;9.678;2023-03-23T02:17:41;12.10;1.00
7822;DHT22;3956;50.558;9.678;2023-03-23T02:20:33;12.10;1.00
7822;DHT22;3956;50.558;9.678;2023-03-23T02:23:37;12.20;1.00
7822;DHT22;3956;50.558;9.678;2023-03-23T02:26:25;12.20;1.00
7822;DHT22;3956;50.558;9.678;2023-03-23T02:32:38;12.30;1.00
7822;DHT22;3956;50.558;9.678;2023-03-23T02:35:12;12.30;1.00
7822;DHT22;3956;50.558;9.678;2023-03-23T02:37:45;12.20;1.00
7822;DHT22;3956;50.558;9.678;2023-03-23T02:40:18;12.30;1.00
7822;DHT22;3956;50.558;9.678;2023-03-23T02:42:50;12.40;1.00
7822;DHT22;3956;50.558;9.678;2023-03-23T02:45:19;12.40;1.00
7822;DHT22;3956;50.558;9.678;2023-03-23T02:47:51;12.50;1.00
7822;DHT22;3956;50.558;9.678;2023-03-23T02:50:23;12.40;1.00
7822;DHT22;3956;50.558;9.678;2023-03-23T02:52:53;12.60;1.00
7822;DHT22;3956;50.558;9.678;2023-03-23T02:55:22;12.60;1.00
7822;DHT22;3956;50.558;9.678;2023-03-23T02:57:51;12.50;1.00
7822;DHT22;3956;50.558;9.678;2023-03-23T03:00:20;12.50;1.00
7822;DHT22;3956;50.558;9.678;2023-03-23T03:02:51;12.60;1.00
7822;DHT22;3956;50.558;9.678;2023-03-23T03:05:30;12.50;1.00
7822;DHT22;3956;50.558;9.678;2023-03-23T03:08:10;12.40;1.00
7822;DHT22;3956;50.558;9.678;2023-03-23T03:10:47;12.30;1.00
7822;DHT22;3956;50.558;9.678;2023-03-23T03:13:27;12.50;1.00
7822;DHT22;3956;50.558;9.678;2023-03-23T03:16:00;12.50;1.00
7822;DHT22;3956;50.558;9.678;2023-03-23T03:18:32;12.50;1.00
7822;DHT22;3956;50.558;9.678;2023-03-23T03:21:06;12.60;1.00
7822;DHT22;3956;50.558;9.678;2023-03-23T03:23:36;12.10;1.00
7822;DHT22;3956;50.558;9.678;2023-03-23T03:26:07;12.10;1.00
7822;DHT22;3956;50.558;9.678;2023-03-23T03:28:45;12.40;1.00
7822;DHT22;3956;50.558;9.678;2023-03-23T03:31:21;12.20;1.00
7822;DHT22;3956;50.558;9.678;2023-03-23T03:33:49;12.10;1.00
7822;DHT22;3956;50.558;9.678;2023-03-23T03:36:19;12.10;1.00
7822;DHT22;3956;50.558;9.678;2023-03-23T03:38:49;12.30;1.00
7822;DHT22;3956;50.558;9.678;2023-03-23T03:41:18;12.20;1.00
7822;DHT22;3956;50.558;9.678;2023-03-23T03:43:45;12.20;1.00
7822;DHT22;3956;50.558;9.678;2023-03-23T03:46:13;12.10;1.00
7822;DHT22;3956;50.558;9.678;2023-03-23T03:48:40;10.60;1.00
7822;DHT22;3956;50.558;9.678;2023-03-23T03:51:07;11.60;1.00
7822;DHT22;3956;50.558;9.678;2023-03-23T03:53:35;11.80;1.00
7822;DHT22;3956;50.558;9.678;2023-03-23T03:56:03;11.80;1.00
7822;DHT22;3956;50.558;9.678;2023-03-23T03:58:31;11.70;1.00
7822;DHT22;3956;50.558;9.678;2023-03-23T04:00:59;11.80;1.00
7822;DHT22;3956;50.558;9.678;2023-03-23T04:03:26;11.70;1.00
7822;DHT22;3956;50.558;9.678;2023-03-23T04:05:54;11.30;1.00
7822;DHT22;3956;50.558;9.678;2023-03-23T04:08:22;11.10;99.90
7822;DHT22;3956;50.558;9.678;2023-03-23T04:10:50;11.00;1.00
7822;DHT22;3956;50.558;9.678;2023-03-23T04:13:19;10.70;1.00
7822;DHT22;3956;50.558;9.678;2023-03-23T04:15:47;10.70;8.80
7822;DHT22;3956;50.558;9.678;2023-03-23T04:18:15;10.60;99.90
7822;DHT22;3956;50.558;9.678;2023-03-23T04:20:43;10.80;99.90
7822;DHT22;3956;50.558;9.678;2023-03-23T04:23:14;10.50;99.90
7822;DHT22;3956;50.558;9.678;2023-03-23T04:25:45;10.50;99.90
7822;DHT22;3956;50.558;9.678;2023-03-23T04:28:14;10.60;1.00
7822;DHT22;3956;50.558;9.678;2023-03-23T04:30:42;10.60;1.00
7822;DHT22;3956;50.558;9.678;2023-03-23T04:33:10;10.60;1.00
7822;DHT22;3956;50.558;9.678;2023-03-23T04:35:40;10.50;1.00
7822;DHT22;3956;50.558;9.678;2023-03-23T04:38:07;10.50;1.00
7822;DHT22;3956;50.558;9.678;2023-03-23T04:40:36;10.50;1.00
7822;DHT22;3956;50.558;9.678;2023-03-23T04:43:04;10.50;95.30
7822;DHT22;3956;50.558;9.678;2023-03-23T04:45:35;10.40;99.90
7822;DHT22;3956;50.558;9.678;2023-03-23T04:48:26;10.40;99.90
7822;DHT22;3956;50.558;9.678;2023-03-23T04:51:08;10.30;99.90
7822;DHT22;3956;50.558;9.678;2023-03-23T04:54:00;10.30;1.00
7822;DHT22;3956;50.558;9.678;2023-03-23T04:56:31;10.20;1.00
7822;DHT22;3956;50.558;9.678;2023-03-23T04:58:58;10.00;1.00
7822;DHT22;3956;50.558;9.678;2023-03-23T05:01:28;9.60;1.00
7822;DHT22;3956;50.558;9.678;2023-03-23T05:03:58;9.70;1.00
7822;DHT22;3956;50.558;9.678;2023-03-23T05:06:26;9.80;99.90
7822;DHT22;3956;50.558;9.678;2023-03-23T05:08:55;9.90;1.00
7822;DHT22;3956;50.558;9.678;2023-03-23T05:11:25;9.80;99.90
7822;DHT22;3956;50.558;9.678;2023-03-23T05:13:53;9.80;99.90
7822;DHT22;3956;50.558;9.678;2023-03-23T05:16:20;9.80;15.20
7822;DHT22;3956;50.558;9.678;2023-03-23T05:18:49;9.80;1.00
7822;DHT22;3956;50.558;9.678;2023-03-23T05:21:18;9.90;99.90
7822;DHT22;3956;50.558;9.678;2023-03-23T05:23:49;10.00;10.50
7822;DHT22;3956;50.558;9.678;2023-03-23T05:26:21;10.00;29.50
7822;DHT22;3956;50.558;9.678;2023-03-23T05:28:49;10.00;26.10
7822;DHT22;3956;50.558;9.678;2023-03-23T05:31:19;10.00;99.90
7822;DHT22;3956;50.558;9.678;2023-03-23T05:33:46;10.00;99.90
7822;DHT22;3956;50.558;9.678;2023-03-23T05:36:14;9.90;71.30
7822;DHT22;3956;50.558;9.678;2023-03-23T05:38:42;9.90;1.00
7822;DHT22;3956;50.558;9.678;2023-03-23T05:41:11;9.80;99.90
7822;DHT22;3956;50.558;9.678;2023-03-23T05:43:39;9.80;99.90
7822;DHT22;3956;50.558;9.678;2023-03-23T05:46:06;9.70;99.90
7822;DHT22;3956;50.558;9.678;2023-03-23T05:48:34;9.70;1.00
7822;DHT22;3956;50.558;9.678;2023-03-23T05:51:01;9.60;1.00
7822;DHT22;3956;50.558;9.678;2023-03-23T05:53:31;9.60;1.00
7822;DHT22;3956;50.558;9.678;2023-03-23T05:56:01;9.70;99.90
7822;DHT22;3956;50.558;9.678;2023-03-23T05:58:29;9.70;99.90
7822;DHT22;3956;50.558;9.678;2023-03-23T06:00:57;9.60;99.90
7822;DHT22;3956;50.558;9.678;2023-03-23T06:03:24;9.60;99.90
7822;DHT22;3956;50.558;9.678;2023-03-23T06:05:51;9.60;99.90
7822;DHT22;3956;50.558;9.678;2023-03-23T06:08:19;9.60;99.90
7822;DHT22;3956;50.558;9.678;2023-03-23T06:10:50;9.60;12.00
7822;DHT22;3956;50.558;9.678;2023-03-23T06:13:19;9.50;1.00
7822;DHT22;3956;50.558;9.678;2023-03-23T06:15:47;9.60;1.00
7822;DHT22;3956;50.558;9.678;2023-03-23T06:18:15;9.40;99.90
7822;DHT22;3956;50.558;9.678;2023-03-23T06:20:44;9.50;99.90
7822;DHT22;3956;50.558;9.678;2023-03-23T06:23:22;9.60;13.60
7822;DHT22;3956;50.558;9.678;2023-03-23T06:25:53;9.60;1.00
7822;DHT22;3956;50.558;9.678;2023-03-23T06:28:21;9.70;18.90
7822;DHT22;3956;50.558;9.678;2023-03-23T06:30:48;9.80;4.40
7822;DHT22;3956;50.558;9.678;2023-03-23T06:33:15;9.80;1.00
7822;DHT22;3956;50.558;9.678;2023-03-23T06:35:44;9.90;1.00
7822;DHT22;3956;50.558;9.678;2023-03-23T06:38:26;10.00;1.00
7822;DHT22;3956;50.558;9.678;2023-03-23T06:40:58;10.10;1.00
7822;DHT22;3956;50.558;9.678;2023-03-23T06:43:28;10.10;1.00
7822;DHT22;3956;50.558;9.678;2023-03-23T06:46:09;10.00;1.00
7822;DHT22;3956;50.558;9.678;2023-03-23T06:48:38;10.10;1.00
7822;DHT22;3956;50.558;9.678;2023-03-23T06:51:07;10.10;1.00
7822;DHT22;3956;50.558;9.678;2023-03-23T06:53:34;10.20;1.00
7822;DHT22;3956;50.558;9.678;2023-03-23T06:56:10;10.20;1.00
7822;DHT22;3956;50.558;9.678;2023-03-23T06:59:17;10.20;1.00
7822;DHT22;3956;50.558;9.678;2023-03-23T07:02:09;10.20;1.00
7822;DHT22;3956;50.558;9.678;2023-03-23T07:04:39;10.20;18.50
7822;DHT22;3956;50.558;9.678;2023-03-23T07:07:08;10.20;41.70
7822;DHT22;3956;50.558;9.678;2023-03-23T07:09:36;10.20;1.00
7822;DHT22;3956;50.558;9.678;2023-03-23T07:12:05;10.20;1.00
7822;DHT22;3956;50.558;9.678;2023-03-23T07:14:34;10.30;1.00
7822;DHT22;3956;50.558;9.678;2023-03-23T07:17:03;10.30;1.00
7822;DHT22;3956;50.558;9.678;2023-03-23T07:19:36;10.50;1.00
7822;DHT22;3956;50.558;9.678;2023-03-23T07:22:09;10.50;1.00
7822;DHT22;3956;50.558;9.678;2023-03-23T07:24:38;10.50;1.00
7822;DHT22;3956;50.558;9.678;2023-03-23T07:27:06;10.70;1.00
7822;DHT22;3956;50.558;9.678;2023-03-23T07:29:44;10.60;1.00
7822;DHT22;3956;50.558;9.678;2023-03-23T07:32:18;10.60;1.00
7822;DHT22;3956;50.558;9.678;2023-03-23T07:34:45;10.60;1.00
7822;DHT22;3956;50.558;9.678;2023-03-23T07:37:18;10.70;99.90
7822;DHT22;3956;50.558;9.678;2023-03-23T07:40:16;10.80;99.90
7822;DHT22;3956;50.558;9.678;2023-03-23T07:43:13;10.80;1.00
7822;DHT22;3956;50.558;9.678;2023-03-23T07:45:42;10.90;99.90
7822;DHT22;3956;50.558;9.678;2023-03-23T07:48:11;10.90;99.90
7822;DHT22;3956;50.558;9.678;2023-03-23T07:50:40;10.90;99.90
7822;DHT22;3956;50.558;9.678;2023-03-23T07:53:13;11.10;69.40
7822;DHT22;3956;50.558;9.678;2023-03-23T07:55:54;10.40;99.90
7822;DHT22;3956;50.558;9.678;2023-03-23T07:58:26;10.50;1.00
7822;DHT22;3956;50.558;9.678;2023-03-23T08:01:01;10.60;99.90
7822;DHT22;3956;50.558;9.678;2023-03-23T08:03:29;10.50;99.90
7822;DHT22;3956;50.558;9.678;2023-03-23T08:05:57;10.40;1.00
7822;DHT22;3956;50.558;9.678;2023-03-23T08:08:30;10.40;1.00
7822;DHT22;3956;50.558;9.678;2023-03-23T08:11:17;10.30;99.90
7822;DHT22;3956;50.558;9.678;2023-03-23T08:13:55;10.30;99.90
7822;DHT22;3956;50.558;9.678;2023-03-23T08:16:23;10.40;99.90
7822;DHT22;3956;50.558;9.678;2023-03-23T08:18:51;10.50;99.90
7822;DHT22;3956;50.558;9.678;2023-03-23T08:21:18;10.60;99.90
7822;DHT22;3956;50.558;9.678;2023-03-23T08:23:47;10.50;99.90
7822;DHT22;3956;50.558;9.678;2023-03-23T08:26:19;10.70;1.00
7822;DHT22;3956;50.558;9.678;2023-03-23T08:28:48;11.00;38.80
7822;DHT22;3956;50.558;9.678;2023-03-23T08:31:18;10.90;99.90
7822;DHT22;3956;50.558;9.678;2023-03-23T08:33:46;11.00;99.90
7822;DHT22;3956;50.558;9.678;2023-03-23T08:36:15;10.70;1.00
7822;DHT22;3956;50.558;9.678;2023-03-23T08:38:42;10.80;1.00
7822;DHT22;3956;50.558;9.678;2023-03-23T08:41:11;10.80;99.90
7822;DHT22;3956;50.558;9.678;2023-03-23T08:43:42;10.80;1.00
7822;DHT22;3956;50.558;9.678;2023-03-23T08:46:13;10.90;1.00
7822;DHT22;3956;50.558;9.678;2023-03-23T08:48:42;11.00;99.90
7822;DHT22;3956;50.558;9.678;2023-03-23T08:51:10;10.90;22.50
7822;DHT22;3956;50.558;9.678;2023-03-23T08:53:38;11.00;22.70
7822;DHT22;3956;50.558;9.678;2023-03-23T08:56:06;11.00;1.00
7822;DHT22;3956;50.558;9.678;2023-03-23T08:58:35;11.10;1.00
7822;DHT22;3956;50.558;9.678;2023-03-23T09:01:03;11.10;1.00
7822;DHT22;3956;50.558;9.678;2023-03-23T09:03:33;11.10;1.00
7822;DHT22;3956;50.558;9.678;2023-03-23T09:06:14;11.00;1.00
7822;DHT22;3956;50.558;9.678;2023-03-23T09:08:55;11.10;1.00
7822;DHT22;3956;50.558;9.678;2023-03-23T09:11:46;11.20;1.00
7822;DHT22;3956;50.558;9.678;2023-03-23T09:14:15;11.30;1.00
7822;DHT22;3956;50.558;9.678;2023-03-23T09:16:43;11.30;1.00
7822;DHT22;3956;50.558;9.678;2023-03-23T09:19:11;11.20;1.00
7822;DHT22;3956;50.558;9.678;2023-03-23T09:21:49;11.10;1.00
7822;DHT22;3956;50.558;9.678;2023-03-23T09:24:34;11.10;1.00
7822;DHT22;3956;50.558;9.678;2023-03-23T09:27:01;11.30;1.00
7822;DHT22;3956;50.558;9.678;2023-03-23T09:29:34;11.20;1.00
7822;DHT22;3956;50.558;9.678;2023-03-23T09:32:21;11.20;1.00
7822;DHT22;3956;50.558;9.678;2023-03-23T09:34:57;11.30;1.00
7822;DHT22;3956;50.558;9.678;2023-03-23T09:37:31;11.30;1.00
7822;DHT22;3956;50.558;9.678;2023-03-23T09:40:18;11.30;1.00
7822;DHT22;3956;50.558;9.678;2023-03-23T09:42:55;11.30;1.00
7822;DHT22;3956;50.558;9.678;2023-03-23T09:45:26;11.30;1.00
7822;DHT22;3956;50.558;9.678;2023-03-23T09:48:09;11.30;1.00
7822;DHT22;3956;50.558;9.678;2023-03-23T09:50:41;11.40;1.00
7822;DHT22;3956;50.558;9.678;2023-03-23T09:53:16;11.30;1.00
7822;DHT22;3956;50.558;9.678;2023-03-23T09:55:49;11.50;1.00
7822;DHT22;3956;50.558;9.678;2023-03-23T09:58:37;11.50;1.00
7822;DHT22;3956;50.558;9.678;2023-03-23T10:01:08;11.50;1.00
7822;DHT22;3956;50.558;9.678;2023-03-23T10:03:39;11.50;1.00
7822;DHT22;3956;50.558;9.678;2023-03-23T10:06:11;11.70;1.00
7822;DHT22;3956;50.558;9.678;2023-03-23T10:08:44;11.60;1.00
7822;DHT22;3956;50.558;9.678;2023-03-23T10:11:16;11.90;1.00
7822;DHT22;3956;50.558;9.678;2023-03-23T10:14:07;11.90;1.00
7822;DHT22;3956;50.558;9.678;2023-03-23T10:16:40;11.80;1.00
7822;DHT22;3956;50.558;9.678;2023-03-23T10:19:18;11.80;99.90
7822;DHT22;3956;50.558;9.678;2023-03-23T10:21:52;11.80;1.00
7822;DHT22;3956;50.558;9.678;2023-03-23T10:24:27;11.70;1.00
7822;DHT22;3956;50.558;9.678;2023-03-23T10:27:03;11.90;99.90
7822;DHT22;3956;50.558;9.678;2023-03-23T10:29:35;11.70;99.90
7822;DHT22;3956;50.558;9.678;2023-03-23T10:32:09;11.80;99.90
7822;DHT22;3956;50.558;9.678;2023-03-23T10:34:45;11.80;99.90
7822;DHT22;3956;50.558;9.678;2023-03-23T10:37:29;11.90;99.90
7822;DHT22;3956;50.558;9.678;2023-03-23T10:40:01;12.20;99.90
7822;DHT22;3956;50.558;9.678;2023-03-23T10:42:37;11.90;99.90
7822;DHT22;3956;50.558;9.678;2023-03-23T10:45:14;11.90;1.00
7822;DHT22;3956;50.558;9.678;2023-03-23T10:47:46;11.60;93.50
7822;DHT22;3956;50.558;9.678;2023-03-23T10:50:18;11.80;99.90
7822;DHT22;3956;50.558;9.678;2023-03-23T10:52:52;11.60;1.00
7822;DHT22;3956;50.558;9.678;2023-03-23T10:55:40;11.40;1.00
7822;DHT22;3956;50.558;9.678;2023-03-23T10:58:33;11.50;1.00
7822;DHT22;3956;50.558;9.678;2023-03-23T11:01:05;11.40;1.00
7822;DHT22;3956;50.558;9.678;2023-03-23T11:03:40;11.30;1.00
7822;DHT22;3956;50.558;9.678;2023-03-23T11:06:11;11.50;99.90
7822;DHT22;3956;50.558;9.678;2023-03-23T11:08:48;11.50;99.90
7822;DHT22;3956;50.558;9.678;2023-03-23T11:11:19;11.50;1.00
7822;DHT22;3956;50.558;9.678;2023-03-23T11:13:49;11.90;99.90
7822;DHT22;3956;50.558;9.678;2023-03-23T11:16:25;11.90;1.00
7822;DHT22;3956;50.558;9.678;2023-03-23T11:18:53;11.90;99.90
7822;DHT22;3956;50.558;9.678;2023-03-23T11:21:33;12.00;1.00
7822;DHT22;3956;50.558;9.678;2023-03-23T11:24:02;11.80;1.00
7822;DHT22;3956;50.558;9.678;2023-03-23T11:26:36;11.90;1.00
7822;DHT22;3956;50.558;9.678;2023-03-23T11:29:08;12.20;1.00
7822;DHT22;3956;50.558;9.678;2023-03-23T11:31:43;12.40;1.00
7822;DHT22;3956;50.558;9.678;2023-03-23T11:34:20;12.40;1.00
7822;DHT22;3956;50.558;9.678;2023-03-23T11:36:53;12.20;1.00
7822;DHT22;3956;50.558;9.678;2023-03-23T11:39:33;12.30;99.90
7822;DHT22;3956;50.558;9.678;2023-03-23T11:42:17;12.00;1.00
7822;DHT22;3956;50.558;9.678;2023-03-23T11:44:46;11.70;99.90
7822;DHT22;3956;50.558;9.678;2023-03-23T11:47:20;11.60;99.90
7822;DHT22;3956;50.558;9.678;2023-03-23T11:49:55;11.70;99.90
7822;DHT22;3956;50.558;9.678;2023-03-23T11:52:41;12.30;1.00
7822;DHT22;3956;50.558;9.678;2023-03-23T11:55:20;12.80;99.90
7822;DHT22;3956;50.558;9.678;2023-03-23T11:57:51;13.00;99.90
7822;DHT22;3956;50.558;9.678;2023-03-23T12:00:20;13.10;99.90
7822;DHT22;3956;50.558;9.678;2023-03-23T12:03:10;13.10;99.90
7822;DHT22;3956;50.558;9.678;2023-03-23T12:05:49;13.30;99.90
7822;DHT22;3956;50.558;9.678;2023-03-23T12:08:52;13.10;99.90
7822;DHT22;3956;50.558;9.678;2023-03-23T12:12:11;13.60;95.20
7822;DHT22;3956;50.558;9.678;2023-03-23T12:15:47;13.80;55.50
7822;DHT22;3956;50.558;9.678;2023-03-23T12:19:03;13.30;52.40
7822;DHT22;3956;50.558;9.678;2023-03-23T12:21:47;13.50;73.10
7822;DHT22;3956;50.558;9.678;2023-03-23T12:24:28;13.00;67.30
7822;DHT22;3956;50.558;9.678;2023-03-23T12:27:04;12.80;56.20
7822;DHT22;3956;50.558;9.678;2023-03-23T12:30:02;12.70;59.70
7822;DHT22;3956;50.558;9.678;2023-03-23T12:32:58;12.70;56.80
7822;DHT22;3956;50.558;9.678;2023-03-23T12:35:37;12.70;99.90
7822;DHT22;3956;50.558;9.678;2023-03-23T12:38:16;12.50;98.50
7822;DHT22;3956;50.558;9.678;2023-03-23T12:41:04;12.40;99.00
7822;DHT22;3956;50.558;9.678;2023-03-23T12:43:38;12.50;91.60
7822;DHT22;3956;50.558;9.678;2023-03-23T12:46:17;12.40;85.60
7822;DHT22;3956;50.558;9.678;2023-03-23T12:48:51;12.30;78.30
7822;DHT22;3956;50.558;9.678;2023-03-23T12:51:23;12.30;74.70
7822;DHT22;3956;50.558;9.678;2023-03-23T12:53:59;12.30;84.80
7822;DHT22;3956;50.558;9.678;2023-03-23T12:56:31;12.40;66.20
7822;DHT22;3956;50.558;9.678;2023-03-23T12:59:10;12.30;68.90
7822;DHT22;3956;50.558;9.678;2023-03-23T13:01:55;12.40;71.50
7822;DHT22;3956;50.558;9.678;2023-03-23T13:04:29;12.30;56.20
7822;DHT22;3956;50.558;9.678;2023-03-23T13:07:01;12.30;59.80
7822;DHT22;3956;50.558;9.678;2023-03-23T13:09:37;12.20;51.90
7822;DHT22;3956;50.558;9.678;2023-03-23T13:12:09;12.30;46.60
7822;DHT22;3956;50.558;9.678;2023-03-23T13:14:43;12.30;51.50
7822;DHT22;3956;50.558;9.678;2023-03-23T13:17:38;12.30;41.60
7822;DHT22;3956;50.558;9.678;2023-03-23T13:20:37;12.30;52.60
7822;DHT22;3956;50.558;9.678;2023-03-23T13:23:11;12.40;56.40
7822;DHT22;3956;50.558;9.678;2023-03-23T13:25:50;12.30;53.70
7822;DHT22;3956;50.558;9.678;2023-03-23T13:28:21;12.30;52.40
7822;DHT22;3956;50.558;9.678;2023-03-23T13:31:14;12.40;58.60
7822;DHT22;3956;50.558;9.678;2023-03-23T13:34:04;12.40;50.90
7822;DHT22;3956;50.558;9.678;2023-03-23T13:37:02;12.30;60.50
7822;DHT22;3956;50.558;9.678;2023-03-23T13:39:37;12.30;48.00
7822;DHT22;3956;50.558;9.678;2023-03-23T13:45:45;12.30;53.60
7822;DHT22;3956;50.558;9.678;2023-03-23T13:48:22;12.30;45.60
7822;DHT22;3956;50.558;9.678;2023-03-23T13:50:53;12.30;58.00
7822;DHT22;3956;50.558;9.678;2023-03-23T13:53:26;12.30;55.80
7822;DHT22;3956;50.558;9.678;2023-03-23T13:56:15;12.30;59.00
7822;DHT22;3956;50.558;9.678;2023-03-23T13:58:47;12.50;43.80
7822;DHT22;3956;50.558;9.678;2023-03-23T14:01:38;12.80;26.60
7822;DHT22;3956;50.558;9.678;2023-03-23T14:04:21;12.90;12.40
7822;DHT22;3956;50.558;9.678;2023-03-23T14:06:50;12.80;11.50
7822;DHT22;3956;50.558;9.678;2023-03-23T14:09:23;13.00;6.10
7822;DHT22;3956;50.558;9.678;2023-03-23T14:11:56;13.10;1.00
7822;DHT22;3956;50.558;9.678;2023-03-23T14:14:31;13.10;1.00
7822;DHT22;3956;50.558;9.678;2023-03-23T14:17:07;13.20;1.00
7822;DHT22;3956;50.558;9.678;2023-03-23T14:19:44;13.20;1.00
7822;DHT22;3956;50.558;9.678;2023-03-23T14:22:35;13.00;1.00
7822;DHT22;3956;50.558;9.678;2023-03-23T14:25:26;13.10;1.00
7822;DHT22;3956;50.558;9.678;2023-03-23T14:27:53;13.40;1.00
7822;DHT22;3956;50.558;9.678;2023-03-23T14:30:22;13.30;1.00
7822;DHT22;3956;50.558;9.678;2023-03-23T14:32:52;13.30;1.00
7822;DHT22;3956;50.558;9.678;2023-03-23T14:35:26;13.30;1.00
7822;DHT22;3956;50.558;9.678;2023-03-23T14:37:56;13.20;1.00
7822;DHT22;3956;50.558;9.678;2023-03-23T14:40:28;13.40;1.00
7822;DHT22;3956;50.558;9.678;2023-03-23T14:42:58;13.50;1.00
7822;DHT22;3956;50.558;9.678;2023-03-23T14:45:28;13.70;1.00
7822;DHT22;3956;50.558;9.678;2023-03-23T14:48:02;13.90;1.00
7822;DHT22;3956;50.558;9.678;2023-03-23T14:50:55;13.90;1.00
7822;DHT22;3956;50.558;9.678;2023-03-23T14:53:57;13.70;1.00
7822;DHT22;3956;50.558;9.678;2023-03-23T14:56:34;13.50;1.00
7822;DHT22;3956;50.558;9.678;2023-03-23T14:59:06;13.50;1.00
7822;DHT22;3956;50.558;9.678;2023-03-23T15:01:37;13.60;1.00
7822;DHT22;3956;50.558;9.678;2023-03-23T15:04:08;13.80;1.00
7822;DHT22;3956;50.558;9.678;2023-03-23T15:06:42;13.80;1.00
7822;DHT22;3956;50.558;9.678;2023-03-23T15:09:14;13.60;1.00
7822;DHT22;3956;50.558;9.678;2023-03-23T15:11:51;13.70;1.00
7822;DHT22;3956;50.558;9.678;2023-03-23T15:14:22;13.80;1.00
7822;DHT22;3956;50.558;9.678;2023-03-23T15:17:01;13.80;1.00
7822;DHT22;3956;50.558;9.678;2023-03-23T15:22:47;13.70;1.00
7822;DHT22;3956;50.558;9.678;2023-03-23T15:25:30;13.70;1.00
7822;DHT22;3956;50.558;9.678;2023-03-23T15:28:16;13.80;1.00
7822;DHT22;3956;50.558;9.678;2023-03-23T15:30:55;13.80;1.00
7822;DHT22;3956;50.558;9.678;2023-03-23T15:33:49;13.60;1.00
7822;DHT22;3956;50.558;9.678;2023-03-23T15:36:37;13.60;1.00
7822;DHT22;3956;50.558;9.678;2023-03-23T15:39:14;13.60;1.00
7822;DHT22;3956;50.558;9.678;2023-03-23T15:41:52;13.50;1.00
7822;DHT22;3956;50.558;9.678;2023-03-23T15:44:40;13.60;1.00
7822;DHT22;3956;50.558;9.678;2023-03-23T15:47:34;13.60;1.00
7822;DHT22;3956;50.558;9.678;2023-03-23T15:50:56;13.50;1.00
7822;DHT22;3956;50.558;9.678;2023-03-23T15:54:07;13.50;1.00
7822;DHT22;3956;50.558;9.678;2023-03-23T15:57:26;13.40;1.00
7822;DHT22;3956;50.558;9.678;2023-03-23T16:00:32;13.40;1.00
7822;DHT22;3956;50.558;9.678;2023-03-23T16:03:51;13.50;1.00
7822;DHT22;3956;50.558;9.678;2023-03-23T16:06:45;13.50;1.00
7822;DHT22;3956;50.558;9.678;2023-03-23T16:09:41;13.50;1.00
7822;DHT22;3956;50.558;9.678;2023-03-23T16:12:43;13.60;1.00
7822;DHT22;3956;50.558;9.678;2023-03-23T16:15:48;13.50;1.00
7822;DHT22;3956;50.558;9.678;2023-03-23T16:18:33;13.70;1.00
7822;DHT22;3956;50.558;9.678;2023-03-23T16:21:08;13.50;1.00
7822;DHT22;3956;50.558;9.678;2023-03-23T16:24:08;13.30;1.00
7822;DHT22;3956;50.558;9.678;2023-03-23T16:26:41;13.30;1.00
7822;DHT22;3956;50.558;9.678;2023-03-23T16:29:18;13.30;1.00
7822;DHT22;3956;50.558;9.678;2023-03-23T16:32:11;13.20;1.00
7822;DHT22;3956;50.558;9.678;2023-03-23T16:34:44;13.10;1.00
7822;DHT22;3956;50.558;9.678;2023-03-23T16:37:18;13.10;1.00
7822;DHT22;3956;50.558;9.678;2023-03-23T16:39:50;13.10;1.00
7822;DHT22;3956;50.558;9.678;2023-03-23T16:42:49;13.10;1.00
7822;DHT22;3956;50.558;9.678;2023-03-23T16:45:22;13.10;1.00
7822;DHT22;3956;50.558;9.678;2023-03-23T16:48:32;13.10;1.00
7822;DHT22;3956;50.558;9.678;2023-03-23T16:51:07;13.10;1.00
7822;DHT22;3956;50.558;9.678;2023-03-23T16:53:46;13.00;1.00
7822;DHT22;3956;50.558;9.678;2023-03-23T16:59:46;13.00;1.00
7822;DHT22;3956;50.558;9.678;2023-03-23T17:02:20;13.00;1.00
7822;DHT22;3956;50.558;9.678;2023-03-23T17:04:57;13.00;1.00
7822;DHT22;3956;50.558;9.678;2023-03-23T17:07:36;12.90;1.00
7822;DHT22;3956;50.558;9.678;2023-03-23T17:10:54;12.90;1.00
7822;DHT22;3956;50.558;9.678;2023-03-23T17:13:53;12.80;1.00
7822;DHT22;3956;50.558;9.678;2023-03-23T17:16:21;12.80;1.00
7822;DHT22;3956;50.558;9.678;2023-03-23T17:18:57;12.70;1.00
7822;DHT22;3956;50.558;9.678;2023-03-23T17:21:38;12.70;1.00
7822;DHT22;3956;50.558;9.678;2023-03-23T17:24:08;12.70;1.00